Time;durP1;ratioP1;P1;durP2;ratioP2;P2;SDS_P1;SDS_P2;PMS_P1;PMS_P2;Temp;Humidity;BMP_temperature;BMP_pressure;BME280_temperature;BME280_humidity;BME280_pressure;Samples;Min_cycle;Max_cycle;Signal;HPM_P1;HPM_P2
2022/04/29 00:01:22;;;;;;;13.05;5.25;;;;;;;8.79;100.00;103150.50;5074270;28;20024;-68
2022/04/29 00:03:47;;;;;;;10.25;5.10;;;;;;;8.77;100.00;103154.75;5074358;28;20036;-68
2022/04/29 00:06:14;;;;;;;11.77;4.95;;;;;;;8.84;100.00;103158.66;5074113;28;20173;-68
2022/04/29 00:08:40;;;;;;;12.38;5.18;;;;;;;8.69;100.00;103154.25;5072618;28;20055;-70
2022/04/29 00:11:06;;;;;;;6.65;4.43;;;;;;;8.69;100.00;103154.25;5072922;28;20475;-69
2022/04/29 00:13:32;;;;;;;12.13;4.28;;;;;;;8.71;100.00;103142.16;5073200;28;20107;-69
2022/04/29 00:15:58;;;;;;;6.03;3.63;;;;;;;8.68;100.00;103138.44;5073775;28;20055;-70
2022/04/29 00:18:23;;;;;;;12.65;4.22;;;;;;;8.58;99.80;103136.97;5073749;28;20043;-68
2022/04/29 00:20:49;;;;;;;14.52;5.63;;;;;;;8.61;98.59;103129.28;5073590;28;20024;-68
2022/04/29 00:23:15;;;;;;;8.57;3.50;;;;;;;8.63;98.00;103125.03;5074143;28;20081;-69
2022/04/29 00:25:40;;;;;;;9.38;3.20;;;;;;;8.55;97.75;103123.66;5072211;28;20028;-67
2022/04/29 00:28:06;;;;;;;7.28;3.85;;;;;;;8.54;97.58;103116.59;5072379;28;20544;-69
2022/04/29 00:30:32;;;;;;;9.05;3.45;;;;;;;8.54;97.80;103122.72;5072623;28;20550;-69
2022/04/29 00:32:57;;;;;;;12.75;4.85;;;;;;;8.49;97.70;103123.28;5073227;28;20052;-69
2022/04/29 00:35:22;;;;;;;8.48;4.00;;;;;;;8.49;98.49;103120.66;5071687;28;20464;-68
2022/04/29 00:37:51;;;;;;;11.70;3.45;;;;;;;8.41;98.70;103121.06;5073730;28;20473;-69
2022/04/29 00:40:18;;;;;;;11.75;3.83;;;;;;;8.43;98.32;103114.16;5073897;28;20376;-71
2022/04/29 00:42:45;;;;;;;9.30;3.72;;;;;;;8.36;98.95;103111.97;5071760;28;20423;-70
2022/04/29 00:45:12;;;;;;;15.40;4.00;;;;;;;8.49;98.76;103112.78;5073654;28;20468;-69
2022/04/29 00:47:37;;;;;;;7.45;3.40;;;;;;;8.49;98.99;103115.41;5072707;28;20025;-69
2022/04/29 00:50:03;;;;;;;10.07;3.83;;;;;;;8.39;99.07;103116.50;5071687;28;20044;-69
2022/04/29 00:52:31;;;;;;;13.70;4.38;;;;;;;8.39;99.24;103112.16;5069909;28;20028;-69
2022/04/29 00:55:07;;;;;;;14.13;4.40;;;;;;;8.25;100.00;103108.69;5073650;28;20039;-69
2022/04/29 00:57:39;;;;;;;15.02;4.18;;;;;;;8.36;99.75;103108.47;5073352;28;20059;-68
2022/04/29 01:00:26;;;;;;;11.05;4.10;;;;;;;8.41;99.45;103104.38;5072305;28;20368;-69
2022/04/29 01:02:53;;;;;;;15.52;4.47;;;;;;;8.35;99.67;103115.41;5072802;28;20036;-69
2022/04/29 01:05:22;;;;;;;11.00;4.47;;;;;;;8.21;100.00;103111.03;5073313;28;20029;-69
2022/04/29 01:07:49;;;;;;;8.82;4.68;;;;;;;8.20;100.00;103099.63;5072945;28;20024;-70
2022/04/29 01:10:16;;;;;;;10.68;4.60;;;;;;;8.19;100.00;103107.41;5073076;28;20051;-69
2022/04/29 01:12:43;;;;;;;25.20;5.57;;;;;;;8.24;100.00;103099.00;5072650;28;20502;-68
2022/04/29 01:15:13;;;;;;;10.45;5.00;;;;;;;8.28;99.91;103101.00;5071425;28;20023;-69
2022/04/29 01:17:39;;;;;;;9.10;4.05;;;;;;;8.32;99.68;103109.97;5072827;28;20028;-69
2022/04/29 01:20:07;;;;;;;8.70;4.90;;;;;;;8.18;100.00;103102.94;5072552;28;20028;-69
2022/04/29 01:22:33;;;;;;;19.63;5.10;;;;;;;8.10;100.00;103102.50;5072322;28;20090;-68
2022/04/29 01:24:59;;;;;;;8.38;5.30;;;;;;;8.15;100.00;103094.91;5072555;28;20373;-68
2022/04/29 01:27:24;;;;;;;11.85;5.20;;;;;;;8.18;100.00;103085.53;5072858;28;20082;-69
2022/04/29 01:29:57;;;;;;;11.07;4.75;;;;;;;8.20;100.00;103083.88;5070748;28;20032;-69
2022/04/29 01:32:23;;;;;;;10.98;5.40;;;;;;;8.09;100.00;103091.06;5071701;28;20031;-67
2022/04/29 01:34:49;;;;;;;10.32;4.75;;;;;;;8.13;100.00;103096.53;5071170;28;20487;-68
2022/04/29 01:37:15;;;;;;;13.85;5.20;;;;;;;8.01;100.00;103092.31;5072097;28;20060;-68
2022/04/29 01:39:40;;;;;;;9.60;5.03;;;;;;;8.05;100.00;103090.81;5072763;28;20096;-69
2022/04/29 01:42:06;;;;;;;18.45;5.57;;;;;;;8.03;100.00;103085.47;5072363;28;20480;-69
2022/04/29 01:44:31;;;;;;;8.55;5.10;;;;;;;8.05;100.00;103089.06;5072637;28;20115;-69
2022/04/29 01:46:57;;;;;;;19.35;5.50;;;;;;;8.01;100.00;103087.06;5071051;28;20036;-68
2022/04/29 01:49:22;;;;;;;16.67;5.80;;;;;;;8.01;100.00;103089.69;5071813;28;20024;-68
2022/04/29 01:51:48;;;;;;;13.15;5.75;;;;;;;8.15;100.00;103084.41;5066772;28;20060;-69
2022/04/29 01:54:13;;;;;;;12.38;6.07;;;;;;;8.05;100.00;103078.59;5072661;28;20016;-70
2022/04/29 01:56:39;;;;;;;10.45;5.32;;;;;;;8.01;100.00;103071.34;5072618;28;20036;-69
2022/04/29 01:59:05;;;;;;;17.95;5.68;;;;;;;8.07;100.00;103060.31;5072116;28;20027;-68
2022/04/29 02:01:30;;;;;;;13.95;6.60;;;;;;;7.96;100.00;103062.25;5072116;28;20499;-68
2022/04/29 02:03:58;;;;;;;19.55;6.30;;;;;;;8.05;100.00;103070.72;5071982;28;20036;-70
2022/04/29 02:06:24;;;;;;;10.32;5.75;;;;;;;7.97;100.00;103071.06;5071071;28;20037;-67
2022/04/29 02:08:49;;;;;;;15.43;5.40;;;;;;;7.97;100.00;103079.81;5071760;28;20035;-69
2022/04/29 02:11:17;;;;;;;14.32;6.20;;;;;;;7.93;100.00;103077.81;5072339;28;20020;-69
2022/04/29 02:13:42;;;;;;;6.68;5.45;;;;;;;7.90;100.00;103072.38;5071705;28;21853;-69
2022/04/29 02:16:08;;;;;;;10.70;6.25;;;;;;;7.90;100.00;103073.28;5072487;28;20025;-69
2022/04/29 02:18:33;;;;;;;12.10;5.53;;;;;;;7.90;100.00;103080.25;5076456;28;20083;-69
2022/04/29 02:20:58;;;;;;;17.38;6.28;;;;;;;7.86;100.00;103075.63;5075923;28;20039;-68
2022/04/29 02:23:23;;;;;;;12.80;5.70;;;;;;;7.88;100.00;103079.22;5074467;28;20070;-69
2022/04/29 02:25:49;;;;;;;14.68;6.15;;;;;;;7.87;100.00;103078.34;5074835;28;20116;-68
2022/04/29 02:28:14;;;;;;;19.67;6.63;;;;;;;7.93;100.00;103083.06;5076331;28;20066;-70
2022/04/29 02:30:40;;;;;;;10.65;6.18;;;;;;;7.83;100.00;103080.69;5074863;28;20138;-69
2022/04/29 02:33:06;;;;;;;13.30;6.28;;;;;;;7.84;100.00;103085.09;5074855;28;20079;-70
2022/04/29 02:35:32;;;;;;;20.85;6.68;;;;;;;7.84;100.00;103082.47;5074491;28;20025;-69
2022/04/29 02:37:57;;;;;;;8.50;6.00;;;;;;;7.76;100.00;103085.50;5075202;28;20115;-68
2022/04/29 02:40:23;;;;;;;13.13;6.30;;;;;;;7.75;100.00;103083.69;5075215;28;20555;-69
2022/04/29 02:42:48;;;;;;;12.13;6.43;;;;;;;7.79;100.00;103076.94;5074190;28;20107;-68
2022/04/29 02:45:13;;;;;;;14.35;6.53;;;;;;;7.85;100.00;103074.69;5075024;28;20035;-70
2022/04/29 02:47:39;;;;;;;13.85;6.93;;;;;;;7.84;100.00;103072.91;5075673;28;20486;-69
2022/04/29 02:50:04;;;;;;;14.20;6.15;;;;;;;7.92;100.00;103070.75;5075796;28;20021;-69
2022/04/29 02:52:30;;;;;;;12.75;5.82;;;;;;;7.89;100.00;103058.34;5070106;28;20503;-69
2022/04/29 02:54:55;;;;;;;11.13;5.55;;;;;;;7.94;100.00;103058.66;5075745;28;20020;-69
2022/04/29 02:57:20;;;;;;;21.08;5.95;;;;;;;7.81;100.00;103056.06;5074921;28;20048;-69
2022/04/29 02:59:46;;;;;;;16.42;5.93;;;;;;;7.74;100.00;103054.75;5075092;28;20495;-69
2022/04/29 03:02:11;;;;;;;12.32;5.80;;;;;;;7.83;100.00;103049.22;5091077;28;20064;-69
2022/04/29 03:04:36;;;;;;;12.50;6.38;;;;;;;7.86;100.00;103060.78;5073771;28;20028;-68
2022/04/29 03:07:02;;;;;;;12.15;6.40;;;;;;;7.79;100.00;103068.19;5074068;28;20016;-69
2022/04/29 03:09:27;;;;;;;17.00;6.18;;;;;;;7.87;100.00;103062.59;5074825;28;20031;-68
2022/04/29 03:11:52;;;;;;;10.48;5.82;;;;;;;7.86;100.00;103062.50;5074191;28;20017;-68
2022/04/29 03:14:18;;;;;;;20.95;6.35;;;;;;;7.75;100.00;103064.44;5071422;28;20040;-68
2022/04/29 03:16:43;;;;;;;17.38;6.22;;;;;;;7.79;100.00;103058.59;5068012;28;20020;-68
2022/04/29 03:19:09;;;;;;;13.57;6.00;;;;;;;7.79;100.00;103057.69;5074793;28;20041;-68
2022/04/29 03:21:35;;;;;;;16.17;5.97;;;;;;;7.78;100.00;103061.13;5073802;28;20426;-69
2022/04/29 03:24:01;;;;;;;10.32;6.05;;;;;;;7.81;100.00;103062.19;5073220;28;20494;-67
2022/04/29 03:26:27;;;;;;;12.07;6.28;;;;;;;7.69;100.00;103064.03;5075019;28;20032;-69
2022/04/29 03:28:52;;;;;;;12.07;6.13;;;;;;;7.77;100.00;103070.69;5073864;28;20029;-69
2022/04/29 03:31:18;;;;;;;12.48;5.50;;;;;;;7.74;100.00;103065.25;5074339;28;20067;-68
2022/04/29 03:33:43;;;;;;;13.25;5.78;;;;;;;7.69;100.00;103056.19;5073820;28;20058;-69
2022/04/29 03:36:09;;;;;;;13.20;6.10;;;;;;;7.67;100.00;103058.72;5073899;28;20115;-68
2022/04/29 03:38:35;;;;;;;13.95;6.18;;;;;;;7.71;100.00;103054.59;5074871;28;20552;-68
2022/04/29 03:41:01;;;;;;;15.40;5.82;;;;;;;7.69;100.00;103051.88;5073633;28;20039;-69
2022/04/29 03:43:27;;;;;;;16.10;6.32;;;;;;;7.76;100.00;103054.06;5074635;28;20103;-68
2022/04/29 03:45:53;;;;;;;18.05;6.07;;;;;;;7.62;100.00;103048.75;5074393;28;20074;-69
2022/04/29 03:48:19;;;;;;;16.52;6.15;;;;;;;7.63;100.00;103040.97;5073658;28;20036;-69
2022/04/29 03:50:44;;;;;;;12.35;5.90;;;;;;;7.46;100.00;103037.28;5074424;28;20437;-68
2022/04/29 03:53:10;;;;;;;12.65;6.10;;;;;;;7.56;100.00;103029.19;5073742;28;20432;-68
2022/04/29 03:55:36;;;;;;;18.55;6.85;;;;;;;7.42;100.00;103025.69;5074249;28;20051;-68
2022/04/29 03:58:03;;;;;;;17.25;6.38;;;;;;;7.45;100.00;103018.81;5074840;28;20380;-69
2022/04/29 04:00:31;;;;;;;16.50;7.15;;;;;;;7.53;100.00;103017.63;5073267;28;20025;-68
2022/04/29 04:02:57;;;;;;;13.02;6.13;;;;;;;7.52;100.00;103010.56;5071882;28;20028;-68
2022/04/29 04:05:23;;;;;;;14.80;6.45;;;;;;;7.40;100.00;103016.81;5064870;28;20146;-68
2022/04/29 04:07:48;;;;;;;16.50;7.15;;;;;;;7.43;100.00;103013.50;5072199;28;20028;-68
2022/04/29 04:10:13;;;;;;;18.38;5.93;;;;;;;7.39;100.00;103007.16;5073937;28;20024;-69
2022/04/29 04:12:48;;;;;;;10.25;6.35;;;;;;;7.42;100.00;103007.34;5074388;28;20029;-68
2022/04/29 04:15:15;;;;;;;15.25;6.57;;;;;;;7.46;100.00;103010.16;5086300;28;20028;-68
2022/04/29 04:17:41;;;;;;;12.77;5.90;;;;;;;7.40;100.00;103008.06;5072958;28;20036;-68
2022/04/29 04:20:08;;;;;;;16.88;6.53;;;;;;;7.41;100.00;103018.63;5073932;28;20028;-69
2022/04/29 04:22:36;;;;;;;14.07;5.80;;;;;;;7.47;100.00;103009.38;5072538;28;20035;-68
2022/04/29 04:25:07;;;;;;;15.07;7.03;;;;;;;7.44;100.00;103023.16;5070709;28;20037;-68
2022/04/29 04:27:33;;;;;;;17.02;6.82;;;;;;;7.37;100.00;103020.97;5070868;28;20119;-69
2022/04/29 04:30:00;;;;;;;10.25;6.97;;;;;;;7.42;100.00;103020.47;5071339;28;20120;-70
2022/04/29 04:32:26;;;;;;;12.70;6.85;;;;;;;7.48;100.00;103021.66;5073744;28;20534;-68
2022/04/29 04:34:57;;;;;;;11.75;6.25;;;;;;;7.47;100.00;103017.22;5073170;28;20021;-69
2022/04/29 04:37:27;;;;;;;13.48;6.47;;;;;;;7.49;100.00;103020.84;5070918;28;20032;-68
2022/04/29 04:39:54;;;;;;;14.18;6.43;;;;;;;7.47;100.00;103022.47;5072409;28;20016;-68
2022/04/29 04:42:21;;;;;;;18.40;6.75;;;;;;;7.42;100.00;103016.94;5070778;28;20493;-69
2022/04/29 04:44:49;;;;;;;13.68;6.43;;;;;;;7.44;100.00;103015.31;5072901;28;20020;-68
2022/04/29 04:47:14;;;;;;;13.95;5.53;;;;;;;7.39;100.00;103025.50;5072576;28;20032;-68
2022/04/29 04:49:40;;;;;;;15.20;6.32;;;;;;;7.42;100.00;103027.41;5072988;28;20096;-69
2022/04/29 04:52:05;;;;;;;14.30;6.25;;;;;;;7.46;100.00;103029.44;5069191;28;20029;-69
2022/04/29 04:54:31;;;;;;;11.85;6.47;;;;;;;7.42;100.00;103033.56;5071644;28;20090;-68
2022/04/29 04:56:57;;;;;;;15.98;6.60;;;;;;;7.49;100.00;103033.94;5072712;28;20027;-70
2022/04/29 04:59:22;;;;;;;10.20;5.70;;;;;;;7.47;100.00;103027.69;5071229;28;20115;-70
2022/04/29 05:01:47;;;;;;;20.85;6.72;;;;;;;7.42;100.00;103036.19;5072150;28;20037;-70
2022/04/29 05:04:13;;;;;;;17.75;6.68;;;;;;;7.47;100.00;103038.19;5072853;28;20488;-69
2022/04/29 05:06:38;;;;;;;17.45;7.18;;;;;;;7.36;100.00;103041.00;5069569;28;20024;-70
2022/04/29 05:09:04;;;;;;;15.93;6.53;;;;;;;7.35;100.00;103049.69;5073320;28;20027;-71
2022/04/29 05:11:31;;;;;;;16.50;6.10;;;;;;;7.36;100.00;103053.19;5072470;28;20039;-70
2022/04/29 05:13:57;;;;;;;14.90;6.90;;;;;;;7.39;100.00;103056.94;5071923;28;20560;-72
2022/04/29 05:16:23;;;;;;;18.65;6.57;;;;;;;7.42;100.00;103044.03;5070286;28;20020;-71
2022/04/29 05:18:48;;;;;;;14.98;6.00;;;;;;;7.46;100.00;103041.59;5071361;28;20052;-70
2022/04/29 05:21:14;;;;;;;13.95;6.85;;;;;;;7.49;100.00;103047.03;5069442;28;20024;-69
2022/04/29 05:23:39;;;;;;;17.83;6.03;;;;;;;7.49;100.00;103041.78;5072184;28;20108;-70
2022/04/29 05:26:04;;;;;;;15.98;5.82;;;;;;;7.51;100.00;103034.94;5073027;28;20020;-70
2022/04/29 05:28:30;;;;;;;10.82;6.13;;;;;;;7.58;100.00;103042.38;5072829;28;20033;-70
2022/04/29 05:30:56;;;;;;;16.75;5.93;;;;;;;7.65;100.00;103042.00;5070465;28;20510;-70
2022/04/29 05:33:22;;;;;;;19.92;6.38;;;;;;;7.66;100.00;103041.16;5072835;28;20051;-70
2022/04/29 05:35:48;;;;;;;12.05;6.13;;;;;;;7.67;100.00;103037.75;5072851;28;20016;-71
2022/04/29 05:38:13;;;;;;;15.13;6.72;;;;;;;7.74;100.00;103046.91;5072191;28;20037;-71
2022/04/29 05:43:22;;;;;;;19.63;5.60;;;;;;;7.92;100.00;103034.03;5062186;28;20035;-71
2022/04/29 05:45:48;;;;;;;17.35;5.82;;;;;;;7.89;100.00;103033.88;5071893;28;20028;-70
2022/04/29 05:48:13;;;;;;;14.02;4.93;;;;;;;7.88;100.00;103037.28;5070139;28;20024;-69
2022/04/29 05:50:38;;;;;;;14.05;5.95;;;;;;;7.92;100.00;103044.53;5066654;28;20028;-71
2022/04/29 05:53:04;;;;;;;21.45;6.65;;;;;;;7.86;100.00;103049.41;5071035;28;20097;-70
2022/04/29 05:55:29;;;;;;;16.70;5.32;;;;;;;7.96;100.00;103051.78;5067927;28;20029;-70
2022/04/29 05:57:54;;;;;;;8.45;5.40;;;;;;;7.97;100.00;103053.59;5072189;28;20048;-71
2022/04/29 06:00:20;;;;;;;15.10;6.03;;;;;;;8.12;100.00;103047.50;5068435;28;20060;-70
2022/04/29 06:02:47;;;;;;;14.75;5.80;;;;;;;8.00;100.00;103056.41;5067478;28;20432;-69
2022/04/29 06:05:13;;;;;;;15.02;4.63;;;;;;;8.05;100.00;103061.97;5072607;28;20149;-70
2022/04/29 06:07:38;;;;;;;16.92;5.40;;;;;;;8.14;100.00;103045.88;5072095;28;20121;-68
2022/04/29 06:10:05;;;;;;;13.63;5.43;;;;;;;8.14;100.00;103049.44;5070731;28;20025;-70
2022/04/29 06:12:37;;;;;;;13.27;5.78;;;;;;;8.20;100.00;103062.91;5070366;28;20052;-71
2022/04/29 06:15:02;;;;;;;17.30;6.20;;;;;;;8.23;100.00;103060.50;5071928;28;20487;-70
2022/04/29 06:17:27;;;;;;;17.67;5.72;;;;;;;8.23;100.00;103057.88;5068632;28;20016;-70
2022/04/29 06:19:53;;;;;;;10.95;5.07;;;;;;;8.36;100.00;103067.38;5071134;28;20048;-71
2022/04/29 06:22:18;;;;;;;13.00;5.72;;;;;;;8.39;100.00;103059.69;5070658;28;20028;-71
2022/04/29 06:24:44;;;;;;;15.57;6.53;;;;;;;8.37;100.00;103066.59;5072017;28;20043;-71
2022/04/29 06:27:10;;;;;;;16.58;5.30;;;;;;;8.42;100.00;103064.22;5085867;28;20032;-71
2022/04/29 06:29:36;;;;;;;18.05;6.65;;;;;;;8.58;100.00;103055.59;5070893;28;20028;-70
2022/04/29 06:32:01;;;;;;;18.23;5.57;;;;;;;8.59;100.00;103070.56;5064861;28;20032;-71
2022/04/29 06:34:26;;;;;;;15.07;6.25;;;;;;;8.64;100.00;103078.69;5063906;28;20166;-71
2022/04/29 06:36:52;;;;;;;14.45;6.05;;;;;;;8.69;100.00;103080.78;5070358;28;20039;-70
2022/04/29 06:39:17;;;;;;;16.58;6.63;;;;;;;8.73;100.00;103074.88;5071485;28;20086;-69
2022/04/29 06:41:42;;;;;;;14.02;5.68;;;;;;;8.74;100.00;103074.09;5064934;28;20028;-71
2022/04/29 06:44:08;;;;;;;16.05;5.85;;;;;;;8.80;100.00;103080.53;5068731;28;20029;-72
2022/04/29 06:46:33;;;;;;;16.38;5.18;;;;;;;8.78;100.00;103073.47;5071312;28;20032;-69
2022/04/29 06:48:58;;;;;;;17.40;5.90;;;;;;;8.80;100.00;103077.91;5069363;28;20488;-71
2022/04/29 06:51:25;;;;;;;12.95;6.63;;;;;;;8.74;100.00;103078.44;5071085;28;20020;-70
2022/04/29 06:53:51;;;;;;;10.07;5.70;;;;;;;8.84;100.00;103079.91;5071093;28;20025;-70
2022/04/29 06:56:16;;;;;;;18.40;6.13;;;;;;;8.88;100.00;103074.00;5071413;28;20031;-70
2022/04/29 06:58:41;;;;;;;18.20;5.47;;;;;;;8.94;100.00;103079.63;5071118;28;20434;-70
2022/04/29 07:01:07;;;;;;;16.58;5.88;;;;;;;9.04;100.00;103084.59;5070411;28;20025;-70
2022/04/29 07:03:32;;;;;;;23.55;5.03;;;;;;;9.11;100.00;103081.53;5074029;28;20379;-69
2022/04/29 07:06:00;;;;;;;11.00;5.50;;;;;;;8.97;99.66;103082.44;5073113;28;20052;-70
2022/04/29 07:08:26;;;;;;;12.27;6.03;;;;;;;8.97;100.00;103085.06;5074902;28;20035;-72
2022/04/29 07:10:51;;;;;;;20.23;6.50;;;;;;;9.18;99.30;103087.13;5074207;28;20451;-70
2022/04/29 07:13:17;;;;;;;11.45;5.45;;;;;;;9.19;99.74;103081.06;5074918;28;20389;-71
2022/04/29 07:15:44;;;;;;;14.30;6.10;;;;;;;9.11;100.00;103071.03;5073940;28;20021;-69
2022/04/29 07:18:12;;;;;;;16.05;5.70;;;;;;;9.21;98.40;103068.91;5074284;28;20418;-71
2022/04/29 07:20:38;;;;;;;14.80;5.90;;;;;;;9.12;98.92;103066.69;5073843;28;20475;-71
2022/04/29 07:23:04;;;;;;;14.02;5.35;;;;;;;8.91;100.00;103063.69;5074071;28;20090;-69
2022/04/29 07:25:29;;;;;;;15.98;5.50;;;;;;;9.05;100.00;103064.53;5074282;28;20028;-70
2022/04/29 07:27:54;;;;;;;14.40;5.65;;;;;;;9.13;98.78;103052.75;5070782;28;20035;-71
2022/04/29 07:30:20;;;;;;;16.55;5.78;;;;;;;9.04;99.30;103055.72;5064430;28;20059;-68
2022/04/29 07:32:45;;;;;;;15.30;5.90;;;;;;;9.13;98.42;103052.75;5071082;28;20025;-70
2022/04/29 07:43:24;;;;;;;15.07;6.13;;;;;;;9.15;98.75;103056.34;5072537;28;20518;-69
2022/04/29 07:45:51;;;;;;;13.10;4.88;;;;;;;9.18;98.62;103060.88;5071401;28;20024;-70
2022/04/29 07:48:17;;;;;;;15.30;5.05;;;;;;;9.16;100.00;103062.53;5073620;28;20033;-70
2022/04/29 07:50:42;;;;;;;13.30;5.05;;;;;;;9.25;99.48;103057.78;5074069;28;20020;-70
2022/04/29 07:53:08;;;;;;;15.45;5.13;;;;;;;9.30;98.72;103056.31;5073481;28;20104;-70
2022/04/29 07:55:35;;;;;;;15.63;5.82;;;;;;;9.29;98.85;103049.25;5072893;28;20107;-70
2022/04/29 07:58:00;;;;;;;13.88;5.43;;;;;;;9.33;98.15;103060.84;5074017;28;20111;-70
2022/04/29 08:00:26;;;;;;;17.00;4.75;;;;;;;9.42;97.95;103049.13;5072636;28;20359;-71
2022/04/29 08:02:51;;;;;;;17.70;5.15;;;;;;;9.33;96.74;103066.09;5070393;28;20024;-70
2022/04/29 08:05:18;;;;;;;16.20;5.65;;;;;;;9.29;98.33;103070.28;5073981;28;20132;-70
2022/04/29 08:07:43;;;;;;;13.98;5.88;;;;;;;9.37;99.45;103063.75;5074263;28;20028;-70
2022/04/29 08:10:09;;;;;;;8.73;4.80;;;;;;;9.38;99.51;103060.28;5072684;28;20103;-69
2022/04/29 08:12:36;;;;;;;11.48;5.05;;;;;;;9.50;97.75;103062.72;5071874;28;20036;-70
2022/04/29 08:15:02;;;;;;;12.48;5.05;;;;;;;9.47;98.15;103073.06;5067008;28;20479;-71
2022/04/29 08:17:28;;;;;;;14.20;4.47;;;;;;;9.49;97.41;103078.41;5076226;28;20062;-70
2022/04/29 08:19:53;;;;;;;13.30;5.40;;;;;;;9.53;97.08;103069.88;5073093;28;20048;-69
2022/04/29 08:22:20;;;;;;;14.48;5.10;;;;;;;9.61;96.51;103076.47;5068329;28;20032;-68
2022/04/29 08:24:45;;;;;;;11.80;5.07;;;;;;;9.54;97.05;103062.06;5073761;28;20027;-69
2022/04/29 08:27:11;;;;;;;15.02;5.05;;;;;;;9.56;97.32;103072.66;5071797;28;20040;-70
2022/04/29 08:29:38;;;;;;;16.60;4.88;;;;;;;9.39;97.27;103077.88;5072319;28;20072;-69
2022/04/29 08:32:04;;;;;;;9.63;4.72;;;;;;;9.61;97.24;103073.84;5072108;28;20013;-69
2022/04/29 08:34:30;;;;;;;16.20;5.78;;;;;;;9.69;96.34;103072.56;5073178;28;20059;-70
2022/04/29 08:36:56;;;;;;;52.60;8.20;;;;;;;9.73;96.47;103064.00;5070139;28;20049;-69
2022/04/29 08:39:21;;;;;;;17.52;5.50;;;;;;;9.71;96.41;103076.19;5084401;28;20498;-68
2022/04/29 08:41:50;;;;;;;136.32;15.77;;;;;;;9.60;96.78;103078.22;5073074;28;20020;-69
2022/04/29 08:44:16;;;;;;;27.50;6.43;;;;;;;9.68;97.04;103076.00;5072478;28;20040;-70
2022/04/29 08:46:42;;;;;;;11.27;4.70;;;;;;;9.71;97.02;103086.69;5072252;28;20029;-69
2022/04/29 08:49:08;;;;;;;13.30;4.68;;;;;;;9.78;95.18;103078.31;5070856;28;20020;-70
2022/04/29 08:51:36;;;;;;;15.40;5.20;;;;;;;9.75;98.26;103091.31;5072213;28;20547;-70
2022/04/29 08:54:04;;;;;;;14.60;5.10;;;;;;;9.81;96.67;103089.81;5073852;28;20036;-73
2022/04/29 08:59:18;;;;;;;10.75;4.75;;;;;;;9.95;95.77;103089.75;5072490;28;20067;-71
2022/04/29 09:01:44;;;;;;;14.60;5.65;;;;;;;9.89;94.86;103085.88;5073453;28;20024;-70
2022/04/29 09:04:10;;;;;;;9.00;5.20;;;;;;;9.86;95.13;103086.66;5073036;28;20020;-71
2022/04/29 09:06:47;;;;;;;15.48;4.78;;;;;;;9.94;94.41;103093.25;5072310;28;20414;-70
2022/04/29 09:09:12;;;;;;;15.85;5.47;;;;;;;9.97;96.24;103089.88;5073117;28;20085;-70
2022/04/29 09:11:38;;;;;;;15.10;6.18;;;;;;;9.93;95.06;103090.53;5072791;28;20028;-69
2022/04/29 09:14:20;;;;;;;13.02;5.78;;;;;;;9.93;96.17;103091.44;5070359;28;20029;-70
2022/04/29 09:16:45;;;;;;;14.13;5.75;;;;;;;9.93;95.71;103093.16;5071615;28;20058;-71
2022/04/29 09:19:32;;;;;;;13.25;6.18;;;;;;;9.95;95.48;103092.41;5073200;28;20036;-70
2022/04/29 09:22:09;;;;;;;13.23;5.07;;;;;;;10.18;95.07;103083.97;5072737;28;20035;-69
2022/04/29 09:24:37;;;;;;;7.57;4.50;;;;;;;10.15;94.81;103068.94;5072880;28;20032;-70
2022/04/29 09:27:05;;;;;;;11.05;4.68;;;;;;;10.29;94.17;103067.03;5053953;28;20055;-70
2022/04/29 09:29:39;;;;;;;10.68;4.45;;;;;;;10.44;92.19;103061.72;5071307;28;20111;-70
2022/04/29 09:32:05;;;;;;;11.43;5.28;;;;;;;10.33;92.44;103057.59;5068424;28;20107;-70
2022/04/29 09:34:44;;;;;;;9.70;4.32;;;;;;;10.45;92.80;103048.63;5071599;28;20028;-69
2022/04/29 09:37:20;;;;;;;12.70;4.60;;;;;;;10.56;91.63;103053.56;5071408;28;20023;-69
2022/04/29 09:40:00;;;;;;;13.27;4.35;;;;;;;10.40;92.86;103060.63;5060224;28;20119;-69
2022/04/29 09:42:40;;;;;;;12.02;4.78;;;;;;;10.41;93.53;103061.56;5072796;28;20381;-69
2022/04/29 09:45:18;;;;;;;9.93;3.80;;;;;;;10.50;93.73;103056.78;5072186;28;20036;-69
2022/04/29 09:47:44;;;;;;;14.13;4.10;;;;;;;10.59;92.88;103066.88;5064252;28;20039;-70
2022/04/29 09:50:10;;;;;;;8.05;4.03;;;;;;;10.68;91.07;103067.38;5072253;28;20035;-69
2022/04/29 09:52:40;;;;;;;14.68;4.95;;;;;;;10.68;90.66;103062.09;5071165;28;20115;-70
2022/04/29 09:55:32;;;;;;;11.82;4.10;;;;;;;10.84;90.33;103062.88;5072581;28;20086;-69
2022/04/29 09:57:59;;;;;;;7.30;3.40;;;;;;;10.85;88.74;103059.41;5068930;28;20051;-68
2022/04/29 10:00:25;;;;;;;10.20;4.03;;;;;;;10.84;88.72;103061.16;5068730;28;20021;-68
2022/04/29 10:02:51;;;;;;;6.40;4.07;;;;;;;10.88;89.54;103059.56;5070385;28;20099;-69
2022/04/29 10:05:17;;;;;;;9.25;4.15;;;;;;;10.89;90.08;103069.28;5070804;28;20575;-70
2022/04/29 10:07:43;;;;;;;13.32;4.57;;;;;;;10.82;89.70;103072.44;5071737;28;20099;-69
2022/04/29 10:10:09;;;;;;;12.13;4.30;;;;;;;10.91;89.52;103068.53;5067391;28;20146;-70
2022/04/29 10:12:35;;;;;;;18.70;4.60;;;;;;;10.80;90.70;103067.09;5069893;28;20028;-69
2022/04/29 10:15:06;;;;;;;12.35;4.88;;;;;;;10.75;90.35;103063.31;5071797;28;20059;-70
2022/04/29 10:23:06;;;;;;;17.83;4.38;;;;;;;11.04;89.76;103067.44;5058118;28;20514;-69
2022/04/29 10:25:32;;;;;;;11.95;4.10;;;;;;;11.09;88.78;103065.94;5072094;28;20024;-70
2022/04/29 10:28:00;;;;;;;10.60;4.07;;;;;;;11.24;88.01;103062.25;5060187;28;20025;-69
2022/04/29 10:30:43;;;;;;;12.02;4.57;;;;;;;11.34;86.53;103058.34;5072125;28;20028;-70
2022/04/29 10:33:21;;;;;;;8.00;4.38;;;;;;;11.27;87.71;103065.03;5072358;28;20027;-69
2022/04/29 10:35:49;;;;;;;6.95;4.40;;;;;;;11.42;87.50;103064.88;5065660;28;20366;-69
2022/04/29 10:38:17;;;;;;;9.82;4.45;;;;;;;11.45;88.35;103067.69;5067458;28;20028;-70
2022/04/29 10:40:45;;;;;;;9.65;4.95;;;;;;;11.68;88.53;103068.81;5078460;28;20028;-69
2022/04/29 10:43:13;;;;;;;9.30;4.80;;;;;;;11.73;87.55;103069.91;5075804;28;20024;-69
2022/04/29 10:46:15;;;;;;;9.13;4.30;;;;;;;11.81;88.13;103055.38;5074653;28;20021;-67
2022/04/29 10:48:42;;;;;;;11.50;4.53;;;;;;;11.94;85.68;103053.31;4984762;28;20046;-70
2022/04/29 10:51:23;;;;;;;13.85;4.80;;;;;;;12.17;83.43;103064.97;5058208;28;20040;-70
2022/04/29 10:53:51;;;;;;;7.22;3.97;;;;;;;12.25;82.98;103053.00;5075452;28;20464;-70
2022/04/29 10:56:28;;;;;;;9.30;4.82;;;;;;;12.44;83.29;103054.72;5075919;28;20099;-70
2022/04/29 10:58:58;;;;;;;5.88;3.95;;;;;;;12.71;82.47;103054.16;5076096;28;20039;-70
2022/04/29 11:01:33;;;;;;;11.63;4.30;;;;;;;12.94;79.89;103057.78;5075636;28;20095;-70
2022/04/29 11:04:04;;;;;;;7.93;3.97;;;;;;;13.18;79.79;103061.38;5064662;28;20035;-70
2022/04/29 11:06:49;;;;;;;9.55;3.38;;;;;;;13.22;77.84;103055.38;5075629;28;20031;-71
2022/04/29 11:09:28;;;;;;;8.90;4.43;;;;;;;12.94;76.83;103047.19;5070871;28;20035;-69
2022/04/29 11:11:55;;;;;;;12.70;4.03;;;;;;;12.75;78.89;103044.59;5071179;28;20024;-70
2022/04/29 11:14:20;;;;;;;10.35;4.70;;;;;;;12.98;79.39;103058.78;5074826;28;20020;-70
2022/04/29 11:16:52;;;;;;;10.90;3.95;;;;;;;13.11;78.80;103053.19;5075347;28;20520;-69
2022/04/29 11:19:21;;;;;;;7.45;4.68;;;;;;;13.23;80.07;103051.91;5074033;28;20056;-68
2022/04/29 11:24:53;;;;;;;10.43;4.10;;;;;;;14.17;74.93;103055.59;5070190;28;20058;-70
2022/04/29 11:27:29;;;;;;;7.00;3.92;;;;;;;14.50;73.20;103057.66;5065654;28;20056;-71
2022/04/29 11:30:02;;;;;;;6.97;3.70;;;;;;;14.96;70.15;103059.31;5063967;28;20086;-70
2022/04/29 11:32:28;;;;;;;8.60;3.92;;;;;;;15.07;69.35;103059.69;5059988;28;20043;-70
2022/04/29 11:34:58;;;;;;;10.70;3.85;;;;;;;15.23;65.99;103058.41;5055961;28;20029;-71
2022/04/29 11:37:33;;;;;;;6.97;4.13;;;;;;;15.07;69.27;103054.38;5067430;28;20090;-70
2022/04/29 11:40:07;;;;;;;6.25;3.75;;;;;;;15.58;66.17;103063.06;5061432;28;20119;-72
2022/04/29 11:42:33;;;;;;;8.80;3.88;;;;;;;15.14;65.47;103052.84;5076183;28;20033;-73